createdAt,value
2022-11-24T00:01:18.342Z,1.83
2022-11-24T00:03:47.498Z,2.25
2022-11-24T00:06:16.125Z,1.83
2022-11-24T00:08:45.151Z,1.73
2022-11-24T00:11:14.881Z,1.50
2022-11-24T00:13:41.712Z,0.98
2022-11-24T00:16:15.956Z,2.45
2022-11-24T00:18:44.868Z,2.08
2022-11-24T00:21:12.068Z,1.23
2022-11-24T00:23:39.165Z,1.48
2022-11-24T00:26:05.966Z,1.33
2022-11-24T00:28:34.057Z,1.42
2022-11-24T00:31:01.382Z,1.60
2022-11-24T00:33:28.214Z,1.15
2022-11-24T00:35:59.333Z,1.60
2022-11-24T00:38:26.295Z,1.80
2022-11-24T00:40:53.183Z,1.85
2022-11-24T00:43:20.085Z,2.17
2022-11-24T00:45:47.269Z,1.13
2022-11-24T00:48:14.132Z,1.30
2022-11-24T00:50:40.988Z,1.50
2022-11-24T00:53:07.811Z,1.40
2022-11-24T00:55:34.751Z,1.98
2022-11-24T00:58:01.462Z,1.65
2022-11-24T01:00:28.197Z,1.33
2022-11-24T01:02:54.964Z,2.10
2022-11-24T01:05:21.801Z,1.77
2022-11-24T01:07:48.596Z,1.40
2022-11-24T01:10:15.485Z,1.50
2022-11-24T01:12:42.198Z,1.63
2022-11-24T01:15:09.299Z,2.50
2022-11-24T01:17:36.098Z,1.33
2022-11-24T01:20:04.699Z,1.80
2022-11-24T01:22:31.551Z,1.70
2022-11-24T01:24:58.281Z,1.17
2022-11-24T01:27:25.029Z,1.75
2022-11-24T01:29:51.796Z,1.75
2022-11-24T01:32:18.549Z,1.17
2022-11-24T01:34:45.272Z,1.73
2022-11-24T01:37:11.959Z,2.05
2022-11-24T01:39:38.672Z,2.28
2022-11-24T01:42:05.455Z,1.92
2022-11-24T01:44:32.695Z,1.55
2022-11-24T01:47:20.756Z,1.42
2022-11-24T01:49:51.360Z,1.55
2022-11-24T01:52:24.741Z,1.60
2022-11-24T01:55:09.417Z,1.58
2022-11-24T01:57:47.022Z,1.40
2022-11-24T02:00:14.764Z,1.75
2022-11-24T02:02:43.074Z,1.23
2022-11-24T02:05:21.199Z,1.90
2022-11-24T02:07:48.663Z,1.77
2022-11-24T02:10:16.490Z,1.77
2022-11-24T02:12:50.267Z,1.45
2022-11-24T02:15:18.059Z,1.52
2022-11-24T02:17:44.812Z,2.17
2022-11-24T02:20:13.378Z,1.30
2022-11-24T02:22:52.321Z,2.25
2022-11-24T02:25:39.806Z,1.33
2022-11-24T02:28:11.427Z,1.58
2022-11-24T02:30:38.320Z,1.88
2022-11-24T02:33:05.021Z,1.45
2022-11-24T02:35:32.043Z,1.90
2022-11-24T02:37:58.777Z,1.95
2022-11-24T02:40:28.289Z,1.65
2022-11-24T02:42:58.651Z,1.83
2022-11-24T02:45:27.165Z,1.27
2022-11-24T02:47:53.883Z,1.25
2022-11-24T02:50:20.596Z,1.40
2022-11-24T02:52:47.378Z,1.75
2022-11-24T02:55:14.276Z,1.98
2022-11-24T02:57:41.354Z,1.58
2022-11-24T03:00:09.405Z,1.45
2022-11-24T03:02:36.276Z,1.98
2022-11-24T03:05:03.192Z,2.55
2022-11-24T03:07:30.019Z,2.00
2022-11-24T03:09:56.836Z,2.00
2022-11-24T03:12:23.562Z,3.28
2022-11-24T03:14:50.248Z,1.92
2022-11-24T03:17:16.981Z,1.50
2022-11-24T03:19:43.806Z,2.05
2022-11-24T03:22:12.964Z,1.60
2022-11-24T03:24:39.707Z,1.77
2022-11-24T03:27:06.429Z,1.80
2022-11-24T03:29:33.174Z,1.35
2022-11-24T03:31:59.897Z,2.00
2022-11-24T03:34:26.636Z,2.42
2022-11-24T03:36:53.364Z,2.20
2022-11-24T03:39:20.115Z,1.90
2022-11-24T03:41:46.932Z,1.65
2022-11-24T03:44:13.720Z,1.52
2022-11-24T03:46:40.490Z,1.77
2022-11-24T03:49:07.248Z,1.67
2022-11-24T03:51:33.989Z,1.83
2022-11-24T03:54:00.738Z,2.55
2022-11-24T03:56:27.918Z,2.42
2022-11-24T03:58:54.668Z,2.38
2022-11-24T04:01:21.476Z,1.52
2022-11-24T04:03:48.368Z,1.83
2022-11-24T04:06:15.122Z,1.38
2022-11-24T04:08:41.982Z,1.35
2022-11-24T04:11:08.704Z,1.80
2022-11-24T04:13:35.408Z,1.98
2022-11-24T04:16:05.958Z,1.55
2022-11-24T04:18:32.664Z,1.40
2022-11-24T04:20:59.339Z,1.33
2022-11-24T04:23:26.082Z,1.92
2022-11-24T04:25:52.700Z,1.80
2022-11-24T04:28:19.372Z,1.48
2022-11-24T04:30:46.028Z,1.85
2022-11-24T04:33:13.267Z,1.85
2022-11-24T04:35:40.031Z,1.85
2022-11-24T04:38:06.768Z,1.90
2022-11-24T04:40:33.385Z,3.13
2022-11-24T04:43:00.027Z,2.92
2022-11-24T04:45:27.011Z,1.83
2022-11-24T04:47:53.739Z,1.50
2022-11-24T04:50:20.908Z,1.45
2022-11-24T04:52:47.733Z,1.13
2022-11-24T04:55:14.614Z,2.13
2022-11-24T04:57:41.358Z,2.53
2022-11-24T05:00:09.513Z,1.58
2022-11-24T05:02:37.297Z,1.23
2022-11-24T05:05:05.403Z,0.93
2022-11-24T05:07:32.372Z,1.33
2022-11-24T05:10:17.517Z,1.98
2022-11-24T05:12:48.544Z,1.73
2022-11-24T05:15:18.016Z,1.65
2022-11-24T05:17:44.708Z,1.45
2022-11-24T05:20:11.506Z,1.65
2022-11-24T05:22:38.218Z,1.10
2022-11-24T05:25:05.140Z,1.13
2022-11-24T05:27:31.982Z,1.85
2022-11-24T05:29:58.707Z,1.38
2022-11-24T05:32:25.557Z,1.50
2022-11-24T05:34:53.739Z,1.83
2022-11-24T05:37:21.399Z,1.25
2022-11-24T05:39:48.221Z,1.45
2022-11-24T05:42:33.719Z,1.40
2022-11-24T05:45:00.412Z,1.10
2022-11-24T05:47:27.151Z,1.45
2022-11-24T05:49:53.839Z,1.33
2022-11-24T05:52:20.541Z,1.63
2022-11-24T05:54:47.229Z,1.27
2022-11-24T05:57:14.489Z,2.03
2022-11-24T05:59:41.146Z,1.50
2022-11-24T06:02:07.887Z,1.30
2022-11-24T06:04:34.935Z,1.73
2022-11-24T06:07:01.948Z,1.52
2022-11-24T06:09:28.972Z,1.27
2022-11-24T06:11:56.071Z,0.98
2022-11-24T06:14:22.786Z,1.65
2022-11-24T06:16:49.549Z,1.30
2022-11-24T06:19:16.292Z,2.78
2022-11-24T06:21:42.983Z,1.40
2022-11-24T06:24:09.767Z,1.20
2022-11-24T06:26:36.399Z,1.38
2022-11-24T06:29:03.213Z,1.40
2022-11-24T06:31:29.925Z,1.92
2022-11-24T06:33:56.647Z,1.08
2022-11-24T06:36:23.372Z,1.40
2022-11-24T06:38:50.114Z,0.90
2022-11-24T06:41:18.088Z,1.13
2022-11-24T06:43:45.491Z,1.15
2022-11-24T06:46:12.773Z,1.35
2022-11-24T06:48:39.663Z,1.38
2022-11-24T06:51:08.995Z,1.23
2022-11-24T06:53:38.263Z,1.38
2022-11-24T06:56:16.119Z,0.90
2022-11-24T06:58:48.538Z,1.13
2022-11-24T07:01:19.950Z,1.70
2022-11-24T07:03:48.165Z,0.70
2022-11-24T07:06:15.832Z,1.35
2022-11-24T07:08:42.582Z,0.93
2022-11-24T07:11:12.097Z,1.23
2022-11-24T07:13:38.798Z,1.13
2022-11-24T07:16:32.225Z,1.38
2022-11-24T07:18:59.734Z,1.30
2022-11-24T07:21:27.697Z,1.73
2022-11-24T07:23:56.347Z,1.10
2022-11-24T07:26:23.673Z,1.38
2022-11-24T07:28:50.764Z,1.17
2022-11-24T07:31:20.269Z,1.58
2022-11-24T07:33:55.064Z,0.85
2022-11-24T07:36:22.889Z,1.65
2022-11-24T07:38:49.993Z,1.05
2022-11-24T07:41:19.521Z,1.17
2022-11-24T07:43:47.260Z,1.63
2022-11-24T07:46:16.278Z,0.90
2022-11-24T07:48:43.073Z,1.33
2022-11-24T07:51:09.837Z,0.90
2022-11-24T07:53:37.411Z,0.82
2022-11-24T07:56:06.280Z,1.33
2022-11-24T07:58:35.918Z,1.17
2022-11-24T08:01:14.747Z,1.40
2022-11-24T08:03:42.518Z,1.13
2022-11-24T08:06:30.013Z,1.33
2022-11-24T08:08:57.441Z,0.68
2022-11-24T08:11:24.973Z,1.02
2022-11-24T08:13:51.816Z,1.17
2022-11-24T08:16:19.515Z,1.02
2022-11-24T08:18:50.903Z,1.13
2022-11-24T08:21:17.775Z,0.80
2022-11-24T08:23:44.530Z,1.30
2022-11-24T08:26:15.864Z,1.40
2022-11-24T08:28:43.132Z,1.23
2022-11-24T08:31:16.552Z,0.75
2022-11-24T08:33:43.381Z,1.20
2022-11-24T08:36:12.847Z,1.58
2022-11-24T08:38:39.546Z,1.27
2022-11-24T08:41:09.923Z,1.52
2022-11-24T08:43:36.927Z,0.85
2022-11-24T08:46:06.634Z,1.15
2022-11-24T08:48:34.265Z,0.70
2022-11-24T08:51:07.448Z,0.77
2022-11-24T08:53:34.181Z,0.68
2022-11-24T08:56:01.580Z,0.95
2022-11-24T08:58:29.425Z,0.47
2022-11-24T09:00:56.585Z,0.70
2022-11-24T09:03:23.250Z,1.13
2022-11-24T09:05:52.587Z,0.98
2022-11-24T09:08:20.644Z,1.00
2022-11-24T09:10:47.525Z,1.15
2022-11-24T09:13:14.396Z,0.73
2022-11-24T09:15:41.057Z,0.77
2022-11-24T09:18:07.981Z,0.70
2022-11-24T09:20:34.664Z,0.98
2022-11-24T09:23:01.375Z,1.02
2022-11-24T09:25:27.995Z,0.75
2022-11-24T09:27:54.930Z,0.80
2022-11-24T09:30:23.118Z,0.88
2022-11-24T09:32:49.886Z,0.68
2022-11-24T09:35:16.654Z,0.85
2022-11-24T09:37:45.286Z,0.55
2022-11-24T09:40:16.009Z,1.10
2022-11-24T09:43:08.948Z,1.13
2022-11-24T09:46:09.721Z,1.27
2022-11-24T09:48:41.308Z,0.95
2022-11-24T09:51:12.012Z,0.70
2022-11-24T09:53:41.118Z,0.90
2022-11-24T09:56:27.480Z,0.70
2022-11-24T09:59:10.622Z,0.68
2022-11-24T10:01:41.749Z,0.88
2022-11-24T10:04:40.587Z,0.80
2022-11-24T10:07:29.088Z,1.10
2022-11-24T10:10:14.092Z,0.82
2022-11-24T10:12:53.236Z,0.95
2022-11-24T10:15:56.717Z,1.00
2022-11-24T10:18:26.328Z,0.82
2022-11-24T10:21:30.989Z,0.95
2022-11-24T10:24:29.597Z,0.85
2022-11-24T10:27:09.708Z,0.77
2022-11-24T10:29:41.802Z,0.88
2022-11-24T10:32:19.631Z,0.88
2022-11-24T10:34:51.410Z,0.60
2022-11-24T10:37:45.205Z,0.68
2022-11-24T10:43:11.045Z,0.55
2022-11-24T10:45:39.581Z,1.48
2022-11-24T10:48:17.473Z,0.57
2022-11-24T10:50:44.895Z,0.80
2022-11-24T10:53:16.653Z,0.52
2022-11-24T10:55:55.411Z,1.13
2022-11-24T10:58:26.801Z,0.82
2022-11-24T11:00:54.155Z,1.33
2022-11-24T11:03:23.696Z,1.23
2022-11-24T11:06:03.089Z,1.30
2022-11-24T11:08:33.213Z,0.77
2022-11-24T11:11:30.968Z,0.73
2022-11-24T11:14:04.614Z,0.70
2022-11-24T11:16:52.984Z,0.85
2022-11-24T11:19:50.405Z,1.40
2022-11-24T11:22:36.963Z,0.70
2022-11-24T11:25:09.809Z,0.90
2022-11-24T11:27:37.819Z,0.55
2022-11-24T11:36:13.324Z,1.17
2022-11-24T11:38:41.359Z,0.90
2022-11-24T11:41:18.500Z,1.05
2022-11-24T11:43:47.554Z,1.92
2022-11-24T11:46:18.027Z,0.85
2022-11-24T11:48:46.817Z,1.20
2022-11-24T11:51:26.772Z,0.77
2022-11-24T11:54:02.845Z,0.85
2022-11-24T11:56:50.651Z,0.60
2022-11-24T12:00:14.093Z,0.80
2022-11-24T12:03:34.238Z,0.93
2022-11-24T12:06:11.391Z,0.88
2022-11-24T12:09:19.071Z,1.05
2022-11-24T12:12:05.648Z,0.93
2022-11-24T12:15:11.502Z,0.60
2022-11-24T12:17:48.237Z,1.00
2022-11-24T12:20:36.309Z,0.60
2022-11-24T12:23:17.008Z,0.50
2022-11-24T12:25:54.371Z,1.00
2022-11-24T12:28:50.274Z,1.20
2022-11-24T12:31:37.686Z,0.60
2022-11-24T12:34:04.360Z,1.20
2022-11-24T12:37:15.937Z,1.17
2022-11-24T12:39:55.598Z,1.10
2022-11-24T12:42:38.427Z,1.30
2022-11-24T12:45:33.236Z,0.85
2022-11-24T12:48:20.768Z,0.73
2022-11-24T12:50:48.388Z,0.68
2022-11-24T12:53:28.258Z,0.90
2022-11-24T12:56:00.154Z,1.15
2022-11-24T12:58:41.649Z,1.02
2022-11-24T13:01:17.028Z,0.85
2022-11-24T13:04:16.487Z,2.88
2022-11-24T13:06:53.119Z,0.93
2022-11-24T13:09:20.049Z,1.08
2022-11-24T13:11:57.912Z,0.65
2022-11-24T13:14:34.103Z,1.05
2022-11-24T13:19:50.636Z,0.65
2022-11-24T13:22:24.808Z,0.80
2022-11-24T13:25:14.712Z,1.20
2022-11-24T13:27:44.204Z,1.33
2022-11-24T13:30:35.678Z,1.38
2022-11-24T13:33:27.325Z,0.82
2022-11-24T13:36:03.928Z,0.60
2022-11-24T13:38:44.323Z,2.38
2022-11-24T13:41:32.881Z,0.80
2022-11-24T13:44:26.692Z,0.68
2022-11-24T13:47:34.721Z,2.22
2022-11-24T13:50:09.441Z,1.10
2022-11-24T13:52:37.911Z,1.02
2022-11-24T13:55:21.390Z,1.13
2022-11-24T14:00:23.249Z,1.48
2022-11-24T14:02:52.228Z,1.73
2022-11-24T14:05:23.377Z,1.55
2022-11-24T14:07:52.594Z,1.23
2022-11-24T14:10:29.442Z,1.10
2022-11-24T14:13:24.184Z,1.25
2022-11-24T14:16:18.889Z,1.30
2022-11-24T14:18:47.937Z,1.23
2022-11-24T14:21:20.489Z,1.67
2022-11-24T14:23:51.005Z,1.33
2022-11-24T14:26:26.454Z,1.55
2022-11-24T14:28:54.213Z,1.35
2022-11-24T14:31:22.722Z,1.02
2022-11-24T14:34:15.168Z,1.23
2022-11-24T14:37:19.103Z,1.45
2022-11-24T14:39:56.514Z,1.23
2022-11-24T14:42:27.452Z,1.00
2022-11-24T14:45:03.813Z,2.15
2022-11-24T14:47:33.106Z,1.75
2022-11-24T14:50:15.001Z,1.33
2022-11-24T14:52:56.327Z,1.08
2022-11-24T14:55:24.116Z,1.80
2022-11-24T14:57:50.988Z,2.17
2022-11-24T15:00:39.917Z,2.40
2022-11-24T15:03:19.647Z,3.08
2022-11-24T15:05:55.035Z,2.42
2022-11-24T15:08:24.262Z,2.83
2022-11-24T15:11:00.328Z,2.92
2022-11-24T15:13:28.084Z,2.78
2022-11-24T15:16:02.519Z,3.10
2022-11-24T15:18:43.638Z,2.55
2022-11-24T15:21:17.230Z,1.98
2022-11-24T15:24:16.056Z,2.05
2022-11-24T15:26:43.370Z,2.70
2022-11-24T15:29:13.465Z,2.58
2022-11-24T15:31:41.230Z,2.08
2022-11-24T15:34:12.151Z,2.35
2022-11-24T15:36:38.835Z,2.60
2022-11-24T15:39:05.476Z,2.65
2022-11-24T15:41:33.353Z,2.55
2022-11-24T15:44:00.255Z,1.42
2022-11-24T15:46:37.737Z,1.70
2022-11-24T15:49:05.513Z,2.00
2022-11-24T15:51:32.524Z,2.80
2022-11-24T15:54:01.284Z,1.88
2022-11-24T15:56:36.495Z,2.35
2022-11-24T15:59:03.893Z,1.58
2022-11-24T16:01:32.533Z,2.97
2022-11-24T16:03:59.813Z,2.58
2022-11-24T16:06:26.445Z,3.53
2022-11-24T16:08:53.978Z,2.53
2022-11-24T16:11:21.300Z,3.35
2022-11-24T16:13:52.380Z,2.88
2022-11-24T16:16:20.553Z,2.80
2022-11-24T16:18:47.295Z,2.70
2022-11-24T16:21:14.037Z,2.15
2022-11-24T16:23:40.782Z,2.03
2022-11-24T16:26:07.611Z,3.83
2022-11-24T16:28:34.639Z,2.08
2022-11-24T16:31:01.545Z,2.50
2022-11-24T16:33:31.161Z,2.83
2022-11-24T16:35:58.428Z,2.15
2022-11-24T16:38:27.998Z,2.67
2022-11-24T16:43:39.744Z,2.50
2022-11-24T16:46:17.046Z,2.15
2022-11-24T16:48:45.456Z,1.83
2022-11-24T16:51:13.840Z,1.77
2022-11-24T16:53:48.609Z,2.38
2022-11-24T16:56:17.705Z,1.80
2022-11-24T16:58:44.576Z,1.88
2022-11-24T17:01:13.300Z,1.75
2022-11-24T17:03:40.207Z,2.00
2022-11-24T17:06:09.189Z,1.90
2022-11-24T17:08:37.640Z,2.78
2022-11-24T17:11:18.955Z,3.40
2022-11-24T17:13:47.093Z,2.13
2022-11-24T17:16:16.084Z,1.67
2022-11-24T17:18:43.298Z,2.35
2022-11-24T17:21:16.121Z,3.35
2022-11-24T17:23:42.960Z,1.92
2022-11-24T17:26:15.311Z,2.53
2022-11-24T17:28:42.933Z,2.27
2022-11-24T17:31:20.032Z,2.13
2022-11-24T17:33:46.752Z,2.00
2022-11-24T17:36:13.576Z,2.10
2022-11-24T17:38:40.433Z,2.10
2022-11-24T17:41:07.060Z,1.67
2022-11-24T17:43:33.796Z,1.88
2022-11-24T17:46:03.119Z,1.85
2022-11-24T17:48:30.749Z,2.53
2022-11-24T17:51:15.314Z,2.45
2022-11-24T17:53:43.716Z,2.58
2022-11-24T17:56:15.774Z,2.92
2022-11-24T17:58:43.546Z,2.00
2022-11-24T18:01:12.244Z,1.85
2022-11-24T18:03:40.085Z,2.40
2022-11-24T18:06:12.691Z,2.17
2022-11-24T18:08:41.329Z,2.47
2022-11-24T18:11:09.271Z,2.10
2022-11-24T18:13:55.742Z,2.35
2022-11-24T18:16:24.317Z,1.92
2022-11-24T18:19:07.273Z,1.73
2022-11-24T18:21:34.999Z,2.13
2022-11-24T18:24:01.780Z,2.83
2022-11-24T18:26:28.631Z,1.98
2022-11-24T18:28:55.343Z,1.42
2022-11-24T18:31:22.632Z,1.80
2022-11-24T18:33:49.676Z,1.98
2022-11-24T18:36:18.683Z,2.38
2022-11-24T18:38:45.506Z,2.30
2022-11-24T18:41:14.486Z,1.73
2022-11-24T18:43:41.380Z,1.95
2022-11-24T18:46:12.152Z,1.88
2022-11-24T18:48:38.974Z,1.60
2022-11-24T18:51:06.129Z,1.27
2022-11-24T18:53:32.812Z,2.00
2022-11-24T18:56:01.904Z,1.80
2022-11-24T18:58:30.540Z,1.45
2022-11-24T19:01:11.120Z,1.42
2022-11-24T19:03:46.582Z,1.42
2022-11-24T19:06:20.793Z,1.58
2022-11-24T19:08:47.985Z,2.13
2022-11-24T19:11:19.763Z,1.88
2022-11-24T19:13:47.637Z,1.70
2022-11-24T19:16:14.972Z,2.78
2022-11-24T19:18:42.319Z,2.13
2022-11-24T19:21:09.228Z,1.50
2022-11-24T19:23:35.936Z,1.63
2022-11-24T19:26:04.114Z,1.77
2022-11-24T19:28:31.438Z,1.42
2022-11-24T19:31:06.452Z,1.30
2022-11-24T19:33:33.688Z,2.50
2022-11-24T19:36:20.104Z,2.00
2022-11-24T19:38:52.061Z,1.80
2022-11-24T19:41:20.324Z,2.22
2022-11-24T19:43:48.211Z,1.48
2022-11-24T19:46:18.015Z,1.45
2022-11-24T19:48:47.540Z,1.52
2022-11-24T19:51:19.675Z,2.00
2022-11-24T19:53:46.691Z,2.13
2022-11-24T19:56:17.764Z,2.35
2022-11-24T19:58:45.139Z,1.83
2022-11-24T20:01:14.655Z,2.47
2022-11-24T20:03:42.783Z,1.50
2022-11-24T20:06:12.169Z,2.03
2022-11-24T20:08:39.824Z,1.50
2022-11-24T20:11:14.928Z,1.67
2022-11-24T20:13:43.301Z,1.55
2022-11-24T20:16:12.827Z,1.85
2022-11-24T20:18:43.730Z,1.27
2022-11-24T20:21:12.962Z,1.55
2022-11-24T20:23:40.548Z,2.83
2022-11-24T20:26:13.724Z,2.15
2022-11-24T20:28:40.803Z,1.30
2022-11-24T20:31:13.056Z,2.45
2022-11-24T20:33:40.457Z,1.87
2022-11-24T20:36:12.843Z,1.77
2022-11-24T20:38:41.015Z,2.07
2022-11-24T20:41:10.730Z,1.80
2022-11-24T20:43:38.699Z,1.52
2022-11-24T20:46:08.271Z,1.55
2022-11-24T20:48:35.596Z,1.55
2022-11-24T20:51:07.766Z,1.38
2022-11-24T20:53:35.782Z,2.17
2022-11-24T20:56:23.577Z,1.70
2022-11-24T20:58:50.991Z,1.23
2022-11-24T21:01:23.928Z,1.38
2022-11-24T21:03:56.609Z,1.63
2022-11-24T21:06:24.246Z,1.63
2022-11-24T21:08:51.445Z,2.25
2022-11-24T21:11:19.351Z,1.58
2022-11-24T21:13:48.637Z,1.33
2022-11-24T21:16:33.745Z,0.90
2022-11-24T21:19:04.556Z,1.10
2022-11-24T21:21:34.570Z,1.42
2022-11-24T21:24:06.689Z,2.15
2022-11-24T21:26:38.173Z,1.80
2022-11-24T21:29:05.699Z,1.58
2022-11-24T21:31:36.655Z,1.98
2022-11-24T21:34:04.304Z,1.17
2022-11-24T21:36:32.992Z,1.00
2022-11-24T21:38:59.873Z,1.55
2022-11-24T21:41:28.447Z,0.95
2022-11-24T21:43:55.972Z,1.60
2022-11-24T21:46:23.245Z,1.50
2022-11-24T21:48:50.107Z,1.42
2022-11-24T21:51:19.412Z,1.88
2022-11-24T21:53:47.345Z,1.13
2022-11-24T21:56:19.427Z,1.30
2022-11-24T21:58:47.256Z,1.70
2022-11-24T22:01:14.889Z,1.25
2022-11-24T22:03:41.884Z,0.93
2022-11-24T22:06:08.823Z,1.27
2022-11-24T22:08:35.901Z,1.45
2022-11-24T22:11:05.712Z,1.20
2022-11-24T22:13:32.584Z,1.15
2022-11-24T22:16:07.809Z,1.35
2022-11-24T22:18:36.584Z,1.08
2022-11-24T22:21:05.067Z,1.30
2022-11-24T22:23:33.567Z,1.33
2022-11-24T22:26:08.003Z,2.10
2022-11-24T22:28:36.456Z,1.40
2022-11-24T22:31:08.760Z,1.65
2022-11-24T22:33:35.427Z,1.02
2022-11-24T22:36:02.409Z,1.33
2022-11-24T22:38:30.479Z,1.63
2022-11-24T22:41:02.535Z,1.15
2022-11-24T22:43:31.280Z,1.20
2022-11-24T22:45:57.980Z,1.63
2022-11-24T22:48:24.659Z,1.13
2022-11-24T22:50:51.326Z,2.08
2022-11-24T22:53:18.035Z,1.20
2022-11-24T22:55:44.724Z,1.48
2022-11-24T22:58:11.522Z,1.77
2022-11-24T23:00:38.160Z,1.45
2022-11-24T23:03:04.911Z,1.40
2022-11-24T23:05:33.056Z,1.90
2022-11-24T23:07:59.728Z,1.60
2022-11-24T23:10:26.482Z,1.38
2022-11-24T23:12:54.626Z,1.42
2022-11-24T23:15:21.339Z,1.13
2022-11-24T23:17:47.972Z,2.13
2022-11-24T23:20:14.932Z,1.15
2022-11-24T23:22:41.553Z,1.40
2022-11-24T23:25:09.364Z,1.33
2022-11-24T23:27:36.116Z,0.93
2022-11-24T23:30:04.084Z,1.58
2022-11-24T23:32:30.785Z,1.67
2022-11-24T23:34:57.445Z,1.40
2022-11-24T23:37:39.423Z,1.45
2022-11-24T23:40:11.298Z,0.85
2022-11-24T23:42:37.981Z,1.25
2022-11-24T23:45:05.820Z,1.55
2022-11-24T23:47:32.605Z,1.42
2022-11-24T23:49:59.249Z,1.52
2022-11-24T23:52:25.904Z,1.25
2022-11-24T23:54:52.511Z,1.40
2022-11-24T23:57:19.136Z,1.10
2022-11-24T23:59:45.780Z,0.77
